British Holly — MCZN2 — position and weather

sailwx.info

Track history (hours):
 
Tides and Currents Weather Stations Pressure Air Temp Water Temp Dewpoint Dewpoint Depression Visibility Wind Speed Wind Dir Waves Ship Positions

British Holly

Last reported at 2015-Apr-18 00:31 UTC. Time now 2015-Apr-18 11:42 UTC.
Position N 01°19' E 104°10'.

Type: Ship (hazmat cat C). MMSI: 235814000.

Date/timePositionNaut miles runAvg speedWind from/ knotsBaromVisibWave heightAir tempDewpointWater temp
2015-Apr-18 00:31N 01°19' E 104°10'1 0.7
2015-Apr-17 23:26N 01°19' E 104°10'0 0.0
2015-Apr-17 22:33N 01°19' E 104°10'0 0.0
2015-Apr-17 21:32N 01°19' E 104°10'0 0.0
2015-Apr-17 20:33N 01°19' E 104°10'0 0.0
2015-Apr-17 19:33N 01°19' E 104°10'0 0.0
2015-Apr-17 18:33N 01°19' E 104°10'0 0.0
2015-Apr-17 17:33N 01°19' E 104°10'0 0.0
2015-Apr-17 16:33N 01°19' E 104°10'0 0.0
2015-Apr-17 15:33N 01°19' E 104°10'0 0.0
2015-Apr-17 14:32N 01°19' E 104°10'0 0.0
2015-Apr-17 13:33N 01°19' E 104°10'0 0.0
2015-Apr-17 12:33N 01°19' E 104°10'0 0.0
2015-Apr-17 11:31N 01°19' E 104°10'0 0.0
2015-Apr-17 10:33N 01°19' E 104°10'0 0.0
2015-Apr-17 09:33N 01°19' E 104°10'0 0.0
2015-Apr-17 08:33N 01°19' E 104°10'0 0.0
2015-Apr-17 07:32N 01°19' E 104°10'0 0.0
2015-Apr-17 06:33N 01°19' E 104°10'0 0.0
2015-Apr-17 05:30N 01°19' E 104°10'0 0.0
2015-Apr-17 04:33N 01°19' E 104°10'0 0.0
2015-Apr-17 03:33N 01°19' E 104°10'0 0.0
2015-Apr-17 02:33N 01°19' E 104°10'0 0.2
2015-Apr-17 01:33N 01°19' E 104°10'4 3.8
2015-Apr-17 00:32N 01°16' E 104°08'8 8.6
2015-Apr-16 23:33N 01°15' E 103°60'5 4.6
2015-Apr-16 22:29N 01°15' E 103°55'0 0.0
2015-Apr-16 21:33N 01°15' E 103°55'0 0.1
2015-Apr-16 20:25N 01°15' E 103°55'0 0.1
2015-Apr-16 19:31N 01°15' E 103°55'0 0.0
2015-Apr-16 18:33N 01°15' E 103°55'0 0.1
2015-Apr-16 17:33N 01°15' E 103°55'0 0.0
2015-Apr-16 16:33N 01°15' E 103°55'0 0.1
2015-Apr-16 15:33N 01°15' E 103°55'0 0.0
2015-Apr-16 14:30N 01°15' E 103°55'0 0.0
2015-Apr-16 12:30N 01°15' E 103°55'0 0.0
2015-Apr-16 11:33N 01°15' E 103°55'0 0.0
2015-Apr-16 10:26N 01°15' E 103°55'0 0.0
2015-Apr-16 09:33N 01°15' E 103°55'0 0.0
2015-Apr-16 08:30N 01°15' E 103°55'0 0.0
2015-Apr-16 07:33N 01°15' E 103°55'0 0.0
2015-Apr-16 06:15N 01°15' E 103°55'0 0.1
2015-Apr-16 05:33N 01°15' E 103°55'0 0.0
2015-Apr-16 04:27N 01°15' E 103°55'0 0.1
2015-Apr-16 03:33N 01°15' E 103°55'2 1.8
2015-Apr-16 02:33N 01°15' E 103°56'1 0.9
2015-Apr-16 01:33N 01°14' E 103°57'9 8.6
2015-Apr-16 00:34N 01°10' E 103°49'6 0.2
2015-Apr-14 06:23N 01°09' E 103°43'7 8.0
2015-Apr-14 05:34N 01°11' E 103°49'1010.0
2015-Apr-14 04:32N 01°15' E 103°58'1010.2
2015-Apr-14 03:33N 01°17' E 104°08'45 2.6
2015-Apr-13 10:31N 01°55' E 104°30'0 0.0
2015-Apr-13 09:31N 01°55' E 104°30'0 0.0
2015-Apr-13 08:31N 01°55' E 104°30'0 0.0
2015-Apr-13 07:16N 01°55' E 104°30'  
Track history (hours):
 
Tides and Currents Weather Stations Pressure Air Temp Water Temp Dewpoint Dewpoint Depression Visibility Wind Speed Wind Dir Waves Ship Positions

British Holly

Last reported at 2015-Apr-18 00:31 UTC. Time now 2015-Apr-18 11:42 UTC.
Position N 01°19' E 104°10'.

Type: Ship (hazmat cat C). MMSI: 235814000.

Date/timePositionNaut miles runAvg speedWind from/ knotsBaromVisibWave heightAir tempDewpointWater temp
2015-Apr-18 00:31N 01°19' E 104°10'1 0.7
2015-Apr-17 23:26N 01°19' E 104°10'0 0.0
2015-Apr-17 22:33N 01°19' E 104°10'0 0.0
2015-Apr-17 21:32N 01°19' E 104°10'0 0.0
2015-Apr-17 20:33N 01°19' E 104°10'0 0.0
2015-Apr-17 19:33N 01°19' E 104°10'0 0.0
2015-Apr-17 18:33N 01°19' E 104°10'0 0.0
2015-Apr-17 17:33N 01°19' E 104°10'0 0.0
2015-Apr-17 16:33N 01°19' E 104°10'0 0.0
2015-Apr-17 15:33N 01°19' E 104°10'0 0.0
2015-Apr-17 14:32N 01°19' E 104°10'0 0.0
2015-Apr-17 13:33N 01°19' E 104°10'0 0.0
2015-Apr-17 12:33N 01°19' E 104°10'0 0.0
2015-Apr-17 11:31N 01°19' E 104°10'0 0.0
2015-Apr-17 10:33N 01°19' E 104°10'0 0.0
2015-Apr-17 09:33N 01°19' E 104°10'0 0.0
2015-Apr-17 08:33N 01°19' E 104°10'0 0.0
2015-Apr-17 07:32N 01°19' E 104°10'0 0.0
2015-Apr-17 06:33N 01°19' E 104°10'0 0.0
2015-Apr-17 05:30N 01°19' E 104°10'0 0.0
2015-Apr-17 04:33N 01°19' E 104°10'0 0.0
2015-Apr-17 03:33N 01°19' E 104°10'0 0.0
2015-Apr-17 02:33N 01°19' E 104°10'0 0.2
2015-Apr-17 01:33N 01°19' E 104°10'4 3.8
2015-Apr-17 00:32N 01°16' E 104°08'8 8.6
2015-Apr-16 23:33N 01°15' E 103°60'5 4.6
2015-Apr-16 22:29N 01°15' E 103°55'0 0.0
2015-Apr-16 21:33N 01°15' E 103°55'0 0.1
2015-Apr-16 20:25N 01°15' E 103°55'0 0.1
2015-Apr-16 19:31N 01°15' E 103°55'0 0.0
2015-Apr-16 18:33N 01°15' E 103°55'0 0.1
2015-Apr-16 17:33N 01°15' E 103°55'0 0.0
2015-Apr-16 16:33N 01°15' E 103°55'0 0.1
2015-Apr-16 15:33N 01°15' E 103°55'0 0.0
2015-Apr-16 14:30N 01°15' E 103°55'0 0.0
2015-Apr-16 12:30N 01°15' E 103°55'0 0.0
2015-Apr-16 11:33N 01°15' E 103°55'0 0.0
2015-Apr-16 10:26N 01°15' E 103°55'0 0.0
2015-Apr-16 09:33N 01°15' E 103°55'0 0.0
2015-Apr-16 08:30N 01°15' E 103°55'0 0.0
2015-Apr-16 07:33N 01°15' E 103°55'0 0.0
2015-Apr-16 06:15N 01°15' E 103°55'0 0.1
2015-Apr-16 05:33N 01°15' E 103°55'0 0.0
2015-Apr-16 04:27N 01°15' E 103°55'0 0.1
2015-Apr-16 03:33N 01°15' E 103°55'2 1.8
2015-Apr-16 02:33N 01°15' E 103°56'1 0.9
2015-Apr-16 01:33N 01°14' E 103°57'9 8.6
2015-Apr-16 00:34N 01°10' E 103°49'6 0.2
2015-Apr-14 06:23N 01°09' E 103°43'7 8.0
2015-Apr-14 05:34N 01°11' E 103°49'1010.0
2015-Apr-14 04:32N 01°15' E 103°58'1010.2
2015-Apr-14 03:33N 01°17' E 104°08'45 2.6
2015-Apr-13 10:31N 01°55' E 104°30'0 0.0
2015-Apr-13 09:31N 01°55' E 104°30'0 0.0
2015-Apr-13 08:31N 01°55' E 104°30'0 0.0
2015-Apr-13 07:16N 01°55' E 104°30'  

Dump ship's entire track history